createdAt,value
2022-12-09T00:00:29.296Z,15.80
2022-12-09T00:03:32.999Z,20.00
2022-12-09T00:06:36.475Z,17.00
2022-12-09T00:09:41.325Z,18.20
2022-12-09T00:12:44.634Z,18.00
2022-12-09T00:15:48.202Z,17.60
2022-12-09T00:18:51.955Z,20.20
2022-12-09T00:21:55.605Z,19.00
2022-12-09T00:25:00.550Z,17.00
2022-12-09T00:28:04.122Z,17.00
2022-12-09T00:31:08.503Z,17.50
2022-12-09T00:34:14.138Z,15.00
2022-12-09T00:37:17.624Z,17.80
2022-12-09T00:40:23.548Z,14.40
2022-12-09T00:43:27.159Z,16.40
2022-12-09T00:46:30.987Z,14.50
2022-12-09T00:49:34.637Z,15.20
2022-12-09T00:52:38.095Z,17.25
2022-12-09T00:55:43.394Z,17.75
2022-12-09T00:58:46.779Z,18.00
2022-12-09T01:01:50.215Z,19.00
2022-12-09T01:04:56.439Z,16.00
2022-12-09T01:07:59.878Z,14.00
2022-12-09T01:11:09.774Z,18.00
2022-12-09T01:14:13.388Z,15.80
2022-12-09T01:17:16.848Z,17.60
2022-12-09T01:20:21.243Z,20.00
2022-12-09T01:23:25.017Z,19.00
2022-12-09T01:26:29.999Z,20.00
2022-12-09T01:29:33.302Z,19.00
2022-12-09T01:32:36.700Z,18.60
2022-12-09T01:35:41.660Z,20.00
2022-12-09T01:38:45.045Z,22.00
2022-12-09T01:41:51.478Z,21.00
2022-12-09T01:45:32.014Z,19.60
2022-12-09T01:48:39.004Z,21.60
2022-12-09T01:51:44.142Z,20.00
2022-12-09T01:54:53.508Z,22.00
2022-12-09T01:57:58.780Z,19.00
2022-12-09T02:01:02.708Z,21.25
2022-12-09T02:04:06.994Z,20.60
2022-12-09T02:07:12.849Z,20.00
2022-12-09T02:10:19.304Z,21.00
2022-12-09T02:13:45.121Z,22.00
2022-12-09T02:16:57.923Z,22.00
2022-12-09T02:20:10.243Z,22.20
2022-12-09T02:23:24.416Z,22.00
2022-12-09T02:26:37.023Z,22.00
2022-12-09T02:29:59.212Z,23.00
2022-12-09T02:33:19.943Z,21.60
2022-12-09T02:36:29.544Z,23.75
2022-12-09T02:39:40.557Z,24.00
2022-12-09T02:42:46.535Z,24.60
2022-12-09T02:45:51.749Z,24.00
2022-12-09T02:48:58.027Z,23.00
2022-12-09T02:52:05.682Z,24.00
2022-12-09T02:55:11.716Z,25.40
2022-12-09T02:58:16.727Z,23.00
2022-12-09T03:01:25.264Z,24.00
2022-12-09T03:04:31.441Z,24.00
2022-12-09T03:07:43.310Z,24.00
2022-12-09T03:10:56.219Z,24.60
2022-12-09T03:14:06.230Z,24.00
2022-12-09T03:17:15.615Z,23.00
2022-12-09T03:20:25.896Z,24.00
2022-12-09T03:23:32.891Z,23.00
2022-12-09T03:26:39.727Z,23.40
2022-12-09T03:29:46.288Z,23.80
2022-12-09T03:32:50.591Z,26.00
2022-12-09T03:35:57.713Z,26.00
2022-12-09T03:39:05.298Z,25.00
2022-12-09T03:42:16.916Z,24.80
2022-12-09T03:45:23.750Z,24.00
2022-12-09T03:48:27.454Z,20.00
2022-12-09T03:51:35.968Z,24.00
2022-12-09T03:54:44.865Z,23.00
2022-12-09T03:57:53.341Z,22.00
2022-12-09T04:00:57.379Z,22.00
2022-12-09T04:04:01.032Z,25.00
2022-12-09T04:07:04.590Z,23.60
2022-12-09T04:10:11.002Z,23.00
2022-12-09T04:13:14.946Z,23.00
2022-12-09T04:16:18.698Z,24.00
2022-12-09T04:19:22.505Z,23.00
2022-12-09T04:22:26.405Z,23.00
2022-12-09T04:25:31.294Z,21.50
2022-12-09T04:28:35.111Z,22.00
2022-12-09T04:31:38.870Z,22.40
2022-12-09T04:34:42.239Z,17.80
2022-12-09T04:37:45.460Z,22.00
2022-12-09T04:40:50.181Z,22.40
2022-12-09T04:43:53.650Z,21.00
2022-12-09T04:46:57.524Z,22.00
2022-12-09T04:50:01.534Z,22.00
2022-12-09T04:53:05.184Z,23.80
2022-12-09T04:56:13.843Z,30.40
2022-12-09T04:59:17.445Z,28.40
2022-12-09T05:02:21.173Z,34.00
2022-12-09T05:05:25.025Z,35.00
2022-12-09T05:08:31.753Z,33.25
2022-12-09T05:11:37.629Z,31.00
2022-12-09T05:14:41.127Z,30.00
2022-12-09T05:17:44.603Z,28.50
2022-12-09T05:20:49.369Z,32.00
2022-12-09T05:23:52.953Z,28.00
2022-12-09T05:26:58.188Z,31.00
2022-12-09T05:30:01.867Z,28.20
2022-12-09T05:33:05.945Z,28.00
2022-12-09T05:36:11.235Z,27.25
2022-12-09T05:39:14.772Z,29.00
2022-12-09T05:42:19.547Z,29.00
2022-12-09T05:45:22.927Z,28.00
2022-12-09T05:48:26.647Z,33.00
2022-12-09T05:51:31.373Z,30.80
2022-12-09T05:54:34.789Z,32.40
2022-12-09T05:57:39.764Z,33.00
2022-12-09T06:00:43.672Z,29.75
2022-12-09T06:03:48.628Z,30.00
2022-12-09T06:06:52.594Z,28.00
2022-12-09T06:09:56.493Z,28.00
2022-12-09T06:13:01.937Z,33.00
2022-12-09T06:16:06.973Z,33.00
2022-12-09T06:19:13.034Z,28.00
2022-12-09T06:22:16.914Z,33.00
2022-12-09T06:25:20.507Z,30.67
2022-12-09T06:28:25.733Z,28.00
2022-12-09T06:31:30.390Z,31.67
2022-12-09T06:34:34.455Z,27.00
2022-12-09T06:37:38.082Z,28.00
2022-12-09T06:40:43.116Z,26.60
2022-12-09T06:43:48.272Z,25.00
2022-12-09T06:46:52.107Z,29.60
2022-12-09T06:50:02.566Z,27.25
2022-12-09T06:53:09.539Z,28.00
2022-12-09T06:56:14.486Z,26.60
2022-12-09T06:59:20.578Z,27.00
2022-12-09T07:02:24.171Z,24.60
2022-12-09T07:05:28.829Z,31.00
2022-12-09T07:08:32.834Z,31.00
2022-12-09T07:11:36.838Z,29.40
2022-12-09T07:14:42.404Z,31.00
2022-12-09T07:17:46.787Z,27.00
2022-12-09T07:20:50.617Z,25.40
2022-12-09T07:23:54.124Z,24.00
2022-12-09T07:26:59.425Z,24.00
2022-12-09T07:30:09.585Z,23.80
2022-12-09T07:33:13.189Z,23.67
2022-12-09T07:36:21.053Z,23.00
2022-12-09T07:39:25.267Z,24.00
2022-12-09T07:42:29.565Z,22.75
2022-12-09T07:45:41.153Z,22.50
2022-12-09T07:48:45.692Z,22.00
2022-12-09T07:51:49.579Z,23.00
2022-12-09T07:54:55.312Z,23.00
2022-12-09T07:57:59.163Z,24.00
2022-12-09T08:01:08.336Z,23.00
2022-12-09T08:04:12.128Z,23.00
2022-12-09T08:07:15.571Z,22.00
2022-12-09T08:10:19.695Z,25.00
2022-12-09T08:13:23.233Z,25.40
2022-12-09T08:16:29.191Z,26.00
2022-12-09T08:19:33.008Z,23.00
2022-12-09T08:22:37.067Z,26.00
2022-12-09T08:25:40.913Z,26.60
2022-12-09T08:28:44.549Z,25.60
2022-12-09T08:31:49.900Z,23.00
2022-12-09T08:34:53.437Z,23.00
2022-12-09T08:37:57.666Z,23.00
2022-12-09T08:41:12.748Z,25.00
2022-12-09T08:44:18.158Z,27.60
2022-12-09T08:47:23.197Z,28.00
2022-12-09T08:50:26.640Z,29.75
2022-12-09T08:53:30.977Z,29.00
2022-12-09T08:56:34.715Z,29.00
2022-12-09T08:59:45.245Z,28.50
2022-12-09T09:02:50.949Z,29.00
2022-12-09T09:05:54.584Z,28.40
2022-12-09T09:08:59.517Z,27.00
2022-12-09T09:12:04.115Z,28.00
2022-12-09T09:15:08.867Z,26.60
2022-12-09T09:18:15.067Z,26.00
2022-12-09T09:21:21.730Z,27.40
2022-12-09T09:24:26.868Z,26.00
2022-12-09T09:27:31.038Z,26.60
2022-12-09T09:30:34.735Z,27.00
2022-12-09T09:33:39.878Z,27.00
2022-12-09T09:36:43.490Z,27.40
2022-12-09T09:39:47.251Z,27.00
2022-12-09T09:42:53.556Z,26.20
2022-12-09T09:45:59.632Z,28.00
2022-12-09T09:49:07.827Z,26.00
2022-12-09T09:52:17.067Z,27.00
2022-12-09T09:55:29.825Z,27.00
2022-12-09T09:58:42.803Z,27.00
2022-12-09T10:01:54.136Z,28.00
2022-12-09T10:05:14.467Z,29.00
2022-12-09T10:08:38.650Z,28.00
2022-12-09T10:11:56.573Z,27.00
2022-12-09T10:15:06.291Z,26.25
2022-12-09T10:18:19.194Z,28.00
2022-12-09T10:21:24.586Z,26.00
2022-12-09T10:24:38.808Z,26.25
2022-12-09T10:27:47.194Z,24.00
2022-12-09T10:30:52.614Z,23.40
2022-12-09T10:33:57.726Z,22.00
2022-12-09T10:37:03.089Z,23.00
2022-12-09T10:40:21.112Z,23.00
2022-12-09T10:43:38.745Z,24.25
2022-12-09T10:46:42.833Z,23.50
2022-12-09T10:49:50.915Z,23.00
2022-12-09T10:52:56.799Z,23.00
2022-12-09T10:56:02.613Z,23.00
2022-12-09T10:59:20.498Z,23.00
2022-12-09T11:02:25.573Z,22.00
2022-12-09T11:05:34.771Z,21.00
2022-12-09T11:08:43.549Z,23.00
2022-12-09T11:11:49.074Z,21.00
2022-12-09T11:14:54.881Z,22.00
2022-12-09T11:18:01.526Z,22.80
2022-12-09T11:21:08.766Z,22.00
2022-12-09T11:24:24.920Z,22.00
2022-12-09T11:27:31.871Z,20.00
2022-12-09T11:30:57.707Z,17.00
2022-12-09T11:34:07.448Z,19.40
2022-12-09T11:37:12.736Z,17.80
2022-12-09T11:40:20.587Z,15.80
2022-12-09T11:43:33.075Z,16.00
2022-12-09T11:46:36.597Z,15.25
2022-12-09T11:49:52.616Z,16.00
2022-12-09T11:53:08.647Z,15.00
2022-12-09T11:56:18.183Z,13.25
2022-12-09T11:59:25.148Z,14.00
2022-12-09T12:02:36.372Z,17.00
2022-12-09T12:05:43.583Z,17.40
2022-12-09T12:08:52.990Z,17.00
2022-12-09T12:12:06.214Z,19.00
2022-12-09T12:15:16.267Z,20.40
2022-12-09T12:18:21.246Z,22.00
2022-12-09T12:21:51.428Z,21.00
2022-12-09T12:25:17.777Z,22.80
2022-12-09T12:28:58.978Z,20.25
2022-12-09T12:32:36.785Z,21.25
2022-12-09T12:35:57.965Z,24.00
2022-12-09T12:39:07.727Z,20.00
2022-12-09T12:42:25.722Z,24.75
2022-12-09T12:45:55.045Z,23.00
2022-12-09T12:49:15.110Z,23.20
2022-12-09T12:56:04.782Z,24.80
2022-12-09T12:59:16.059Z,26.20
2022-12-09T13:02:34.108Z,26.00
2022-12-09T13:05:39.500Z,28.00
2022-12-09T13:08:50.515Z,27.00
2022-12-09T13:12:04.346Z,28.00
2022-12-09T13:15:13.604Z,27.00
2022-12-09T13:18:23.539Z,26.60
2022-12-09T13:21:27.071Z,30.00
2022-12-09T13:24:40.620Z,28.50
2022-12-09T13:27:51.236Z,26.40
2022-12-09T13:30:59.553Z,26.80
2022-12-09T13:34:20.027Z,24.00
2022-12-09T13:37:56.763Z,27.00
2022-12-09T13:41:01.507Z,23.00
2022-12-09T13:44:10.721Z,24.00
2022-12-09T13:47:25.720Z,23.00
2022-12-09T13:50:35.942Z,26.00
2022-12-09T13:53:46.501Z,24.00
2022-12-09T13:57:15.095Z,25.00
2022-12-09T14:00:20.080Z,27.00
2022-12-09T14:03:34.879Z,28.00
2022-12-09T14:06:49.589Z,27.00
2022-12-09T14:09:56.179Z,26.60
2022-12-09T14:13:18.992Z,26.00
2022-12-09T14:16:35.524Z,24.25
2022-12-09T14:19:51.447Z,25.50
2022-12-09T14:23:19.640Z,26.00
2022-12-09T14:26:35.412Z,23.00
2022-12-09T14:29:52.415Z,23.20
2022-12-09T14:32:57.243Z,26.40
2022-12-09T14:36:06.338Z,23.00
2022-12-09T14:39:24.929Z,24.25
2022-12-09T14:42:38.263Z,21.60
2022-12-09T14:45:50.888Z,23.00
2022-12-09T14:48:57.865Z,22.00
2022-12-09T14:52:03.993Z,25.00
2022-12-09T14:55:09.821Z,25.00
2022-12-09T14:58:20.630Z,26.00
2022-12-09T15:01:25.343Z,23.00
2022-12-09T15:04:34.365Z,24.00
2022-12-09T15:07:44.740Z,22.20
2022-12-09T15:10:48.072Z,23.80
2022-12-09T15:13:54.044Z,22.00
2022-12-09T15:16:59.629Z,20.00
2022-12-09T15:20:04.382Z,19.80
2022-12-09T15:23:25.868Z,22.75
2022-12-09T15:26:31.083Z,16.20
2022-12-09T15:29:35.509Z,22.75
2022-12-09T15:32:40.723Z,24.00
2022-12-09T15:35:50.738Z,28.00
2022-12-09T15:39:00.164Z,26.75
2022-12-09T15:42:09.655Z,27.00
2022-12-09T15:45:17.514Z,26.00
2022-12-09T15:48:28.116Z,26.20
2022-12-09T15:51:32.569Z,26.20
2022-12-09T15:54:40.568Z,27.60
2022-12-09T15:57:45.438Z,28.00
2022-12-09T16:00:50.490Z,25.80
2022-12-09T16:03:57.160Z,24.50
2022-12-09T16:07:06.998Z,27.00
2022-12-09T16:10:13.825Z,20.80
2022-12-09T16:13:18.849Z,22.50
2022-12-09T16:16:28.427Z,28.00
2022-12-09T16:19:38.364Z,27.60
2022-12-09T16:22:43.112Z,27.00
2022-12-09T16:25:50.417Z,28.00
2022-12-09T16:28:59.589Z,28.00
2022-12-09T16:32:28.322Z,27.00
2022-12-09T16:35:39.840Z,30.00
2022-12-09T16:38:54.981Z,26.75
2022-12-09T16:42:01.826Z,30.40
2022-12-09T16:45:30.200Z,29.75
2022-12-09T16:48:33.472Z,29.00
2022-12-09T16:51:39.407Z,25.60
2022-12-09T16:54:43.974Z,25.00
2022-12-09T16:57:47.385Z,25.60
2022-12-09T17:00:51.269Z,29.00
2022-12-09T17:03:59.696Z,24.00
2022-12-09T17:07:04.524Z,23.00
2022-12-09T17:10:08.617Z,22.00
2022-12-09T17:13:12.955Z,28.75
2022-12-09T17:16:16.996Z,61.00
2022-12-09T17:19:20.523Z,25.80
2022-12-09T17:22:25.243Z,20.75
2022-12-09T17:25:29.868Z,24.00
2022-12-09T17:28:35.449Z,22.75
2022-12-09T17:31:38.761Z,23.75
2022-12-09T17:34:42.202Z,22.00
2022-12-09T17:37:46.948Z,24.00
2022-12-09T17:40:50.518Z,23.40
2022-12-09T17:43:54.213Z,24.00
2022-12-09T17:46:57.487Z,22.00
2022-12-09T17:50:01.327Z,28.00
2022-12-09T17:53:07.155Z,28.00
2022-12-09T17:56:12.053Z,23.00
2022-12-09T17:59:16.914Z,28.60
2022-12-09T18:02:20.295Z,26.00
2022-12-09T18:05:23.614Z,26.00
2022-12-09T18:08:29.739Z,24.40
2022-12-09T18:11:34.015Z,27.25
2022-12-09T18:14:37.298Z,26.00
2022-12-09T18:17:40.603Z,27.60
2022-12-09T18:20:44.268Z,29.00
2022-12-09T18:23:49.579Z,28.60
2022-12-09T18:26:52.895Z,24.50
2022-12-09T18:29:56.223Z,27.00
2022-12-09T18:32:59.678Z,28.00
2022-12-09T18:36:07.583Z,26.60
2022-12-09T18:39:12.427Z,27.00
2022-12-09T18:42:15.789Z,26.40
2022-12-09T18:45:19.357Z,23.60
2022-12-09T18:48:22.817Z,27.80
2022-12-09T18:51:27.015Z,27.20
2022-12-09T18:54:33.427Z,26.00
2022-12-09T18:57:36.821Z,25.60
2022-12-09T19:00:40.135Z,26.40
2022-12-09T19:03:43.587Z,26.20
2022-12-09T19:06:49.025Z,26.40
2022-12-09T19:09:53.710Z,22.00
2022-12-09T19:12:57.478Z,23.00
2022-12-09T19:16:04.959Z,23.00
2022-12-09T19:19:10.334Z,27.00
2022-12-09T19:22:14.631Z,24.80
2022-12-09T19:25:19.396Z,28.00
2022-12-09T19:28:23.256Z,25.50
2022-12-09T19:31:28.588Z,20.00
2022-12-09T19:34:31.882Z,23.00
2022-12-09T19:37:35.262Z,27.20
2022-12-09T19:40:40.060Z,24.00
2022-12-09T19:43:43.434Z,26.00
2022-12-09T19:46:47.500Z,26.60
2022-12-09T19:49:50.795Z,27.80
2022-12-09T19:52:54.056Z,22.00
2022-12-09T19:56:01.544Z,24.40
2022-12-09T19:59:06.381Z,24.20
2022-12-09T20:02:12.170Z,22.75
2022-12-09T20:05:16.006Z,24.00
2022-12-09T20:08:20.304Z,22.25
2022-12-09T20:11:26.818Z,23.40
2022-12-09T20:14:30.155Z,24.00
2022-12-09T20:17:33.591Z,26.00
2022-12-09T20:20:38.671Z,26.00
2022-12-09T20:23:43.721Z,23.00
2022-12-09T20:26:48.312Z,23.00
2022-12-09T20:29:51.651Z,27.80
2022-12-09T20:32:55.140Z,23.20
2022-12-09T20:35:59.534Z,25.40
2022-12-09T20:39:04.525Z,27.75
2022-12-09T20:42:09.229Z,24.40
2022-12-09T20:45:12.726Z,23.75
2022-12-09T20:48:16.361Z,26.00
2022-12-09T20:51:21.701Z,23.00
2022-12-09T20:54:25.069Z,23.40
2022-12-09T20:57:29.847Z,22.00
2022-12-09T21:00:33.226Z,23.00
2022-12-09T21:03:36.951Z,21.60
2022-12-09T21:06:42.121Z,24.67
2022-12-09T21:09:46.147Z,27.00
2022-12-09T21:12:50.885Z,27.75
2022-12-09T21:15:54.736Z,28.00
2022-12-09T21:18:59.896Z,26.80
2022-12-09T21:22:04.147Z,27.25
2022-12-09T21:25:09.576Z,24.75
2022-12-09T21:28:15.575Z,27.80
2022-12-09T21:31:21.543Z,26.00
2022-12-09T21:34:25.537Z,28.50
2022-12-09T21:37:28.899Z,31.00
2022-12-09T21:40:32.242Z,29.00
2022-12-09T21:43:38.370Z,27.25
2022-12-09T21:46:42.487Z,26.00
2022-12-09T21:49:46.058Z,27.00
2022-12-09T21:52:49.239Z,23.75
2022-12-09T21:55:52.947Z,26.00
2022-12-09T21:58:58.893Z,23.50
2022-12-09T22:02:02.219Z,24.00
2022-12-09T22:05:06.766Z,24.80
2022-12-09T22:08:10.236Z,22.00
2022-12-09T22:11:16.567Z,24.00
2022-12-09T22:14:21.224Z,19.20
2022-12-09T22:17:24.538Z,37.00
2022-12-09T22:21:07.747Z,27.33
2022-12-09T22:23:51.265Z,22.00
2022-12-09T22:26:54.992Z,20.00
2022-12-09T22:29:59.741Z,22.00
2022-12-09T22:33:03.142Z,18.00
2022-12-09T22:36:08.214Z,18.00
2022-12-09T22:39:14.078Z,22.00
2022-12-09T22:42:17.559Z,21.20
2022-12-09T22:45:22.792Z,21.75
2022-12-09T22:48:25.992Z,20.00
2022-12-09T22:51:31.694Z,20.00
2022-12-09T22:54:34.896Z,18.00
2022-12-09T22:57:38.213Z,22.00
2022-12-09T23:00:43.262Z,20.00
2022-12-09T23:03:46.616Z,22.00
2022-12-09T23:06:51.281Z,20.00
2022-12-09T23:09:54.802Z,20.50
2022-12-09T23:12:58.727Z,20.00
2022-12-09T23:16:05.051Z,21.00
2022-12-09T23:19:08.794Z,20.20
2022-12-09T23:22:12.070Z,22.00
2022-12-09T23:25:16.272Z,21.50
2022-12-09T23:28:19.645Z,20.40
2022-12-09T23:31:27.629Z,22.00
2022-12-09T23:34:31.219Z,22.00
2022-12-09T23:37:34.487Z,22.00
2022-12-09T23:40:37.733Z,21.00
2022-12-09T23:43:41.514Z,20.00
2022-12-09T23:46:46.529Z,22.00
2022-12-09T23:49:50.164Z,21.80
2022-12-09T23:52:53.523Z,21.60
2022-12-09T23:55:56.923Z,22.00
2022-12-09T23:59:02.894Z,20.00
